createdAt,value
2022-08-03T00:01:45.218Z,21.60
2022-08-03T00:04:14.356Z,21.50
2022-08-03T00:06:42.145Z,21.40
2022-08-03T00:09:10.612Z,21.40
2022-08-03T00:11:39.041Z,21.30
2022-08-03T00:14:07.445Z,21.20
2022-08-03T00:16:35.757Z,21.20
2022-08-03T00:19:04.249Z,21.10
2022-08-03T00:21:33.465Z,21.00
2022-08-03T00:24:01.585Z,21.00
2022-08-03T00:26:29.313Z,21.00
2022-08-03T00:28:57.068Z,21.00
2022-08-03T00:31:48.997Z,20.90
2022-08-03T00:34:12.651Z,20.90
2022-08-03T00:36:41.782Z,21.00
2022-08-03T00:39:10.057Z,21.00
2022-08-03T00:41:37.923Z,21.00
2022-08-03T00:44:06.327Z,21.10
2022-08-03T00:46:34.084Z,21.00
2022-08-03T00:49:02.069Z,21.00
2022-08-03T00:51:29.999Z,21.00
2022-08-03T00:53:59.627Z,20.90
2022-08-03T00:56:28.143Z,20.80
2022-08-03T00:58:59.522Z,20.80
2022-08-03T01:01:32.193Z,20.70
2022-08-03T01:04:00.512Z,20.60
2022-08-03T01:06:41.147Z,20.60
2022-08-03T01:09:19.237Z,20.50
2022-08-03T01:11:59.938Z,20.50
2022-08-03T01:14:34.727Z,20.40
2022-08-03T01:17:12.282Z,20.30
2022-08-03T01:19:51.596Z,20.30
2022-08-03T01:22:45.843Z,20.20
2022-08-03T01:25:28.761Z,20.20
2022-08-03T01:28:06.890Z,20.10
2022-08-03T01:30:38.711Z,20.10
2022-08-03T01:33:10.958Z,20.00
2022-08-03T01:35:45.590Z,20.00
2022-08-03T01:38:16.647Z,20.00
2022-08-03T01:40:47.412Z,20.00
2022-08-03T01:44:27.356Z,19.90
2022-08-03T01:46:08.692Z,19.90
2022-08-03T01:48:38.813Z,19.90
2022-08-03T01:51:08.459Z,19.90
2022-08-03T01:53:37.931Z,19.80
2022-08-03T01:56:07.607Z,19.80
2022-08-03T01:58:36.633Z,19.80
2022-08-03T02:01:06.729Z,19.80
2022-08-03T02:03:59.857Z,19.80
2022-08-03T02:06:59.600Z,19.70
2022-08-03T02:09:16.709Z,19.70
2022-08-03T02:11:46.046Z,19.60
2022-08-03T02:14:15.449Z,19.60
2022-08-03T02:22:11.740Z,19.50
2022-08-03T02:24:40.051Z,19.50
2022-08-03T02:27:20.782Z,19.50
2022-08-03T02:29:55.947Z,19.50
2022-08-03T02:32:30.462Z,19.50
2022-08-03T02:35:00.379Z,19.40
2022-08-03T02:37:35.029Z,19.40
2022-08-03T02:40:05.406Z,19.40
2022-08-03T02:42:34.834Z,19.40
2022-08-03T02:45:06.824Z,19.40
2022-08-03T02:47:53.986Z,19.40
2022-08-03T02:50:24.164Z,19.30
2022-08-03T02:52:54.304Z,19.30
2022-08-03T02:55:24.183Z,19.30
2022-08-03T02:57:53.950Z,19.30
2022-08-03T03:00:28.002Z,19.20
2022-08-03T03:02:58.843Z,19.20
2022-08-03T03:05:54.547Z,19.20
2022-08-03T03:08:25.963Z,19.20
2022-08-03T03:10:58.402Z,19.20
2022-08-03T03:13:28.031Z,19.20
2022-08-03T03:15:57.684Z,19.20
2022-08-03T03:18:28.512Z,19.20
2022-08-03T03:20:57.217Z,19.30
2022-08-03T03:23:27.740Z,19.30
2022-08-03T03:25:58.472Z,19.30
2022-08-03T03:28:27.394Z,19.30
2022-08-03T03:30:55.257Z,19.30
2022-08-03T03:33:23.986Z,19.20
2022-08-03T03:35:52.815Z,19.20
2022-08-03T03:38:21.167Z,19.20
2022-08-03T03:40:50.567Z,19.20
2022-08-03T03:43:19.447Z,19.20
2022-08-03T03:45:48.384Z,19.20
2022-08-03T03:48:16.663Z,19.20
2022-08-03T03:50:45.217Z,19.20
2022-08-03T03:53:15.838Z,19.10
2022-08-03T03:55:59.640Z,19.10
2022-08-03T03:58:33.176Z,19.10
2022-08-03T04:01:01.477Z,19.20
2022-08-03T04:03:29.423Z,19.20
2022-08-03T04:06:15.674Z,19.20
2022-08-03T04:09:01.226Z,19.20
2022-08-03T04:11:33.199Z,19.20
2022-08-03T04:14:07.276Z,19.10
2022-08-03T04:16:43.151Z,19.10
2022-08-03T04:19:17.503Z,19.10
2022-08-03T04:21:52.870Z,19.10
2022-08-03T04:24:22.894Z,19.10
2022-08-03T04:26:56.943Z,19.10
2022-08-03T04:29:27.648Z,19.20
2022-08-03T04:31:57.620Z,19.20
2022-08-03T04:34:25.450Z,19.20
2022-08-03T04:37:00.379Z,19.30
2022-08-03T04:39:30.842Z,19.30
2022-08-03T04:42:08.385Z,19.30
2022-08-03T04:44:40.891Z,19.40
2022-08-03T04:47:09.325Z,19.40
2022-08-03T04:49:38.462Z,19.40
2022-08-03T04:52:08.318Z,19.50
2022-08-03T04:54:41.269Z,19.60
2022-08-03T04:57:09.128Z,19.60
2022-08-03T04:59:39.099Z,19.70
2022-08-03T05:02:09.017Z,19.70
2022-08-03T05:04:38.031Z,19.80
2022-08-03T05:07:11.498Z,19.90
2022-08-03T05:09:50.826Z,20.00
2022-08-03T05:12:20.703Z,20.00
2022-08-03T05:14:49.881Z,20.10
2022-08-03T05:17:17.632Z,20.20
2022-08-03T05:19:45.459Z,20.20
2022-08-03T05:22:13.379Z,20.30
2022-08-03T05:24:41.293Z,20.40
2022-08-03T05:27:09.135Z,20.40
2022-08-03T05:29:37.013Z,20.50
2022-08-03T05:32:16.459Z,20.60
2022-08-03T05:34:44.481Z,20.60
2022-08-03T05:37:12.758Z,20.70
2022-08-03T05:39:40.553Z,20.80
2022-08-03T05:42:08.562Z,20.80
2022-08-03T05:44:38.616Z,20.90
2022-08-03T05:47:08.159Z,21.00
2022-08-03T05:49:36.196Z,21.00
2022-08-03T05:52:10.598Z,21.10
2022-08-03T05:54:57.136Z,21.20
2022-08-03T05:57:25.773Z,21.30
2022-08-03T05:59:54.800Z,21.30
2022-08-03T06:02:28.105Z,21.40
2022-08-03T06:04:55.972Z,21.50
2022-08-03T06:07:23.897Z,21.60
2022-08-03T06:10:35.294Z,21.70
2022-08-03T06:12:41.267Z,21.80
2022-08-03T06:15:11.340Z,21.90
2022-08-03T06:17:48.132Z,21.90
2022-08-03T06:20:19.276Z,22.00
2022-08-03T06:22:51.168Z,22.10
2022-08-03T06:25:28.937Z,22.20
2022-08-03T06:27:56.772Z,22.30
2022-08-03T06:30:24.843Z,22.40
2022-08-03T06:32:53.983Z,22.60
2022-08-03T06:35:22.104Z,22.70
2022-08-03T06:37:51.198Z,22.70
2022-08-03T06:40:24.614Z,22.80
2022-08-03T06:42:52.681Z,22.90
2022-08-03T06:45:20.736Z,23.00
2022-08-03T06:47:48.753Z,23.00
2022-08-03T06:50:24.268Z,23.10
2022-08-03T06:52:53.898Z,23.20
2022-08-03T06:55:21.862Z,23.30
2022-08-03T06:57:49.672Z,23.40
2022-08-03T07:00:18.027Z,23.40
2022-08-03T07:02:46.104Z,23.50
2022-08-03T07:05:16.744Z,23.60
2022-08-03T07:07:44.617Z,23.70
2022-08-03T07:10:12.625Z,23.70
2022-08-03T07:12:55.547Z,23.70
2022-08-03T07:15:53.793Z,23.80
2022-08-03T07:18:12.344Z,23.80
2022-08-03T07:20:42.255Z,23.90
2022-08-03T07:23:10.429Z,24.00
2022-08-03T07:25:47.158Z,24.00
2022-08-03T07:28:15.025Z,24.10
2022-08-03T07:30:42.768Z,24.20
2022-08-03T07:33:10.543Z,24.30
2022-08-03T07:35:38.436Z,24.40
2022-08-03T07:38:07.557Z,24.50
2022-08-03T07:40:35.436Z,24.70
2022-08-03T07:43:03.766Z,24.70
2022-08-03T07:45:32.034Z,24.80
2022-08-03T07:47:59.814Z,25.00
2022-08-03T07:50:27.916Z,25.10
2022-08-03T07:52:56.102Z,25.20
2022-08-03T07:55:27.776Z,25.30
2022-08-03T07:58:06.117Z,25.40
2022-08-03T08:00:34.631Z,25.50
2022-08-03T08:03:02.625Z,25.60
2022-08-03T08:05:30.467Z,25.70
2022-08-03T08:07:58.271Z,25.80
2022-08-03T08:10:27.729Z,25.90
2022-08-03T08:12:56.049Z,25.90
2022-08-03T08:15:24.219Z,26.00
2022-08-03T08:17:53.921Z,26.00
2022-08-03T08:20:28.068Z,26.10
2022-08-03T08:23:01.266Z,26.10
2022-08-03T08:25:31.729Z,26.00
2022-08-03T08:28:31.262Z,26.00
2022-08-03T08:30:49.865Z,26.10
2022-08-03T08:33:23.049Z,26.10
2022-08-03T08:35:52.990Z,26.30
2022-08-03T08:38:20.836Z,26.30
2022-08-03T08:40:50.829Z,26.50
2022-08-03T08:43:18.769Z,26.50
2022-08-03T08:45:47.772Z,26.60
2022-08-03T08:48:16.616Z,26.80
2022-08-03T08:50:44.991Z,26.90
2022-08-03T08:53:17.587Z,27.10
2022-08-03T08:55:58.367Z,27.10
2022-08-03T08:58:31.268Z,27.10
2022-08-03T09:00:59.336Z,27.10
2022-08-03T09:03:30.310Z,27.10
2022-08-03T09:06:02.499Z,27.20
2022-08-03T09:08:30.907Z,27.20
2022-08-03T09:10:58.793Z,27.20
2022-08-03T09:13:26.727Z,27.20
2022-08-03T09:16:15.090Z,27.20
2022-08-03T09:18:43.993Z,27.10
2022-08-03T09:21:37.549Z,27.20
2022-08-03T09:24:13.057Z,27.30
2022-08-03T09:26:53.617Z,27.30
2022-08-03T09:29:22.667Z,27.30
2022-08-03T09:32:02.505Z,27.30
2022-08-03T09:34:30.928Z,27.20
2022-08-03T09:36:59.013Z,27.30
2022-08-03T09:39:42.043Z,27.40
2022-08-03T09:42:14.792Z,27.50
2022-08-03T09:44:45.127Z,27.70
2022-08-03T09:47:15.707Z,27.70
2022-08-03T09:49:57.410Z,27.70
2022-08-03T09:52:49.818Z,27.70
2022-08-03T09:56:30.544Z,27.80
2022-08-03T09:58:10.387Z,27.80
2022-08-03T10:00:54.871Z,27.90
2022-08-03T10:03:25.570Z,28.00
2022-08-03T10:05:58.985Z,28.10
2022-08-03T10:08:27.540Z,28.20
2022-08-03T10:10:56.656Z,28.40
2022-08-03T10:13:25.035Z,28.40
2022-08-03T10:16:21.816Z,28.50
2022-08-03T10:18:42.168Z,28.40
2022-08-03T10:21:14.567Z,28.50
2022-08-03T10:23:43.286Z,28.50
2022-08-03T10:26:17.135Z,28.60
2022-08-03T10:28:51.474Z,28.70
2022-08-03T10:31:21.564Z,28.70
2022-08-03T10:33:53.464Z,28.70
2022-08-03T10:36:24.997Z,28.60
2022-08-03T10:38:53.919Z,28.60
2022-08-03T10:41:24.235Z,28.70
2022-08-03T10:43:57.476Z,28.70
2022-08-03T10:46:26.896Z,28.70
2022-08-03T10:48:57.532Z,28.80
2022-08-03T10:51:30.404Z,28.90
2022-08-03T10:53:58.733Z,28.90
2022-08-03T10:56:58.522Z,28.90
2022-08-03T11:00:07.167Z,28.80
2022-08-03T11:03:18.479Z,28.70
2022-08-03T11:05:49.206Z,28.80
2022-08-03T11:08:31.837Z,28.90
2022-08-03T11:11:02.560Z,29.00
2022-08-03T11:13:33.856Z,29.10
2022-08-03T11:16:07.795Z,29.10
2022-08-03T11:18:37.426Z,29.20
2022-08-03T11:21:06.745Z,29.20
2022-08-03T11:24:04.660Z,29.20
2022-08-03T11:26:33.820Z,29.30
2022-08-03T11:29:28.874Z,29.50
2022-08-03T11:31:56.701Z,29.50
2022-08-03T11:34:25.040Z,29.50
2022-08-03T11:37:24.594Z,29.50
2022-08-03T11:39:56.927Z,29.50
2022-08-03T11:42:47.963Z,29.40
2022-08-03T11:45:16.145Z,29.40
2022-08-03T11:47:50.987Z,29.50
2022-08-03T11:50:20.283Z,29.60
2022-08-03T11:52:50.370Z,29.70
2022-08-03T11:55:21.825Z,29.80
2022-08-03T11:59:01.774Z,29.90
2022-08-03T12:00:37.678Z,29.90
2022-08-03T12:03:07.774Z,29.90
2022-08-03T12:05:40.848Z,29.90
2022-08-03T12:08:11.705Z,30.00
2022-08-03T12:10:41.156Z,30.10
2022-08-03T12:14:44.261Z,30.20
2022-08-03T12:15:59.520Z,30.20
2022-08-03T12:18:27.354Z,30.20
2022-08-03T12:21:05.660Z,30.10
2022-08-03T12:23:37.698Z,30.20
2022-08-03T12:26:07.587Z,30.30
2022-08-03T12:28:37.872Z,30.30
2022-08-03T12:31:09.340Z,30.40
2022-08-03T12:33:59.540Z,30.40
2022-08-03T12:36:28.504Z,30.50
2022-08-03T12:38:59.005Z,30.50
2022-08-03T12:41:32.106Z,30.70
2022-08-03T12:44:00.090Z,30.60
2022-08-03T12:46:32.855Z,30.70
2022-08-03T12:49:12.014Z,30.70
2022-08-03T12:51:57.071Z,30.80
2022-08-03T12:54:28.130Z,30.80
2022-08-03T12:57:00.693Z,30.70
2022-08-03T12:59:34.894Z,30.70
2022-08-03T13:02:04.499Z,30.70
2022-08-03T13:04:34.919Z,30.80
2022-08-03T13:07:06.468Z,30.90
2022-08-03T13:09:46.258Z,30.80
2022-08-03T13:12:15.874Z,30.80
2022-08-03T13:14:44.981Z,30.90
2022-08-03T13:17:13.290Z,30.90
2022-08-03T13:19:41.915Z,30.90
2022-08-03T13:22:14.254Z,31.00
2022-08-03T13:24:42.707Z,31.00
2022-08-03T13:28:03.803Z,31.10
2022-08-03T13:30:00.247Z,31.10
2022-08-03T13:32:28.138Z,31.10
2022-08-03T13:34:55.970Z,31.10
2022-08-03T13:37:24.137Z,31.00
2022-08-03T13:39:59.306Z,31.10
2022-08-03T13:42:30.699Z,31.10
2022-08-03T13:44:59.059Z,31.00
2022-08-03T13:47:27.280Z,31.00
2022-08-03T13:50:01.258Z,31.00
2022-08-03T13:52:34.783Z,31.00
2022-08-03T13:55:03.202Z,31.20
2022-08-03T13:58:19.022Z,31.10
2022-08-03T14:00:27.005Z,31.10
2022-08-03T14:03:02.716Z,31.00
2022-08-03T14:05:32.608Z,31.00
2022-08-03T14:08:03.905Z,31.10
2022-08-03T14:10:32.890Z,31.20
2022-08-03T14:13:02.080Z,31.20
2022-08-03T14:15:29.852Z,31.10
2022-08-03T14:17:58.513Z,31.20
2022-08-03T14:20:38.530Z,31.20
2022-08-03T14:23:14.118Z,31.20
2022-08-03T14:25:49.876Z,31.20
2022-08-03T14:28:20.416Z,31.20
2022-08-03T14:30:48.564Z,31.30
2022-08-03T14:33:16.639Z,31.20
2022-08-03T14:35:44.463Z,31.20
2022-08-03T14:38:12.265Z,31.40
2022-08-03T14:40:40.029Z,31.40
2022-08-03T14:43:07.880Z,31.40
2022-08-03T14:45:37.029Z,31.40
2022-08-03T14:50:30.491Z,31.30
2022-08-03T14:50:55.099Z,31.30
2022-08-03T14:53:22.972Z,31.30
2022-08-03T14:55:52.791Z,31.40
2022-08-03T14:58:22.097Z,31.40
2022-08-03T15:00:52.551Z,31.40
2022-08-03T15:03:23.590Z,31.50
2022-08-03T15:05:52.828Z,31.50
2022-08-03T15:08:21.115Z,31.50
2022-08-03T15:10:49.294Z,31.60
2022-08-03T15:13:17.601Z,31.60
2022-08-03T15:15:45.457Z,31.60
2022-08-03T15:18:14.663Z,31.60
2022-08-03T15:20:45.401Z,31.60
2022-08-03T15:23:15.525Z,31.50
2022-08-03T15:26:03.722Z,31.40
2022-08-03T15:28:31.359Z,31.30
2022-08-03T15:30:59.232Z,31.20
2022-08-03T15:33:28.581Z,31.20
2022-08-03T15:35:57.549Z,31.10
2022-08-03T15:38:26.155Z,31.10
2022-08-03T15:40:55.283Z,31.20
2022-08-03T15:43:23.627Z,31.30
2022-08-03T15:46:12.873Z,31.30
2022-08-03T15:48:41.141Z,31.40
2022-08-03T15:51:09.328Z,31.30
2022-08-03T15:53:37.914Z,31.20
2022-08-03T15:56:12.110Z,31.20
2022-08-03T15:59:09.822Z,31.20
2022-08-03T16:01:29.953Z,31.20
2022-08-03T16:03:59.137Z,31.30
2022-08-03T16:06:29.823Z,31.30
2022-08-03T16:09:03.507Z,31.40
2022-08-03T16:11:31.584Z,31.40
2022-08-03T16:14:12.963Z,31.50
2022-08-03T16:16:47.750Z,31.50
2022-08-03T16:19:17.069Z,31.50
2022-08-03T16:21:48.236Z,31.40
2022-08-03T16:24:17.513Z,31.50
2022-08-03T16:26:54.132Z,31.40
2022-08-03T16:29:23.037Z,31.40
2022-08-03T16:31:52.270Z,31.40
2022-08-03T16:34:21.894Z,31.40
2022-08-03T16:36:49.675Z,31.30
2022-08-03T16:39:17.670Z,31.40
2022-08-03T16:41:54.062Z,31.40
2022-08-03T16:44:29.604Z,31.30
2022-08-03T16:46:57.381Z,31.40
2022-08-03T16:49:54.322Z,31.40
2022-08-03T16:52:16.795Z,31.30
2022-08-03T16:54:53.144Z,31.20
2022-08-03T16:57:56.351Z,31.20
2022-08-03T17:00:11.664Z,31.20
2022-08-03T17:02:48.274Z,31.20
2022-08-03T17:05:17.919Z,31.20
2022-08-03T17:07:50.700Z,31.20
2022-08-03T17:10:27.021Z,31.10
2022-08-03T17:12:55.447Z,31.10
2022-08-03T17:15:38.089Z,31.20
2022-08-03T17:18:17.709Z,31.20
2022-08-03T17:20:50.843Z,31.20
2022-08-03T17:23:35.570Z,31.10
2022-08-03T17:26:08.934Z,31.00
2022-08-03T17:28:49.951Z,31.00
2022-08-03T17:31:31.332Z,30.90
2022-08-03T17:34:01.756Z,30.80
2022-08-03T17:37:02.237Z,30.70
2022-08-03T17:39:35.838Z,30.60
2022-08-03T17:42:38.848Z,30.50
2022-08-03T17:44:58.137Z,30.40
2022-08-03T17:47:29.152Z,30.40
2022-08-03T17:50:23.471Z,30.30
2022-08-03T17:53:07.655Z,30.30
2022-08-03T17:55:56.992Z,30.20
2022-08-03T17:58:41.431Z,30.10
2022-08-03T18:04:30.246Z,29.90
2022-08-03T18:07:00.273Z,29.80
2022-08-03T18:10:04.142Z,29.70
2022-08-03T18:12:41.518Z,29.70
2022-08-03T18:15:21.000Z,29.60
2022-08-03T18:17:55.001Z,29.50
2022-08-03T18:20:32.793Z,29.40
2022-08-03T18:23:04.798Z,29.40
2022-08-03T18:25:42.357Z,29.40
2022-08-03T18:28:15.293Z,29.30
2022-08-03T18:30:53.350Z,29.20
2022-08-03T18:34:18.817Z,29.20
2022-08-03T18:36:11.654Z,29.10
2022-08-03T18:38:48.045Z,29.00
2022-08-03T18:41:31.717Z,29.00
2022-08-03T18:44:08.496Z,28.90
2022-08-03T18:46:48.316Z,28.90
2022-08-03T18:49:29.012Z,28.80
2022-08-03T18:52:04.675Z,28.70
2022-08-03T18:55:04.505Z,28.70
2022-08-03T18:57:44.529Z,28.70
2022-08-03T19:00:16.741Z,28.60
2022-08-03T19:02:50.251Z,28.50
2022-08-03T19:05:21.365Z,28.50
2022-08-03T19:07:59.635Z,28.40
2022-08-03T19:10:32.313Z,28.30
2022-08-03T19:13:05.206Z,28.20
2022-08-03T19:15:51.568Z,28.10
2022-08-03T19:18:22.731Z,28.00
2022-08-03T19:23:40.899Z,27.80
2022-08-03T19:26:26.684Z,27.60
2022-08-03T19:28:58.986Z,27.40
2022-08-03T19:31:31.074Z,27.30
2022-08-03T19:34:04.020Z,27.20
2022-08-03T19:36:40.412Z,27.10
2022-08-03T19:39:09.894Z,27.00
2022-08-03T19:41:41.955Z,26.90
2022-08-03T19:44:19.981Z,26.80
2022-08-03T19:46:53.146Z,26.80
2022-08-03T19:49:23.082Z,26.70
2022-08-03T19:54:52.951Z,26.60
2022-08-03T19:57:24.479Z,26.50
2022-08-03T19:59:54.790Z,26.50
2022-08-03T20:02:27.125Z,26.40
2022-08-03T20:04:56.427Z,26.30
2022-08-03T20:07:24.859Z,26.20
2022-08-03T20:09:54.612Z,26.10
2022-08-03T20:12:27.515Z,26.00
2022-08-03T20:14:58.926Z,26.00
2022-08-03T20:17:57.068Z,25.90
2022-08-03T20:20:21.024Z,25.90
2022-08-03T20:22:57.757Z,25.90
2022-08-03T20:25:38.439Z,25.90
2022-08-03T20:28:14.175Z,25.90
2022-08-03T20:30:47.291Z,25.90
2022-08-03T20:33:18.407Z,25.90
2022-08-03T20:35:49.155Z,25.90
2022-08-03T20:38:18.546Z,25.90
2022-08-03T20:40:47.297Z,25.80
2022-08-03T20:43:15.108Z,25.80
2022-08-03T20:46:00.232Z,25.70
2022-08-03T20:48:35.621Z,25.70
2022-08-03T20:51:05.785Z,25.60
2022-08-03T20:53:59.564Z,25.60
2022-08-03T20:56:33.536Z,25.50
2022-08-03T20:59:02.988Z,25.40
2022-08-03T21:01:36.372Z,25.30
2022-08-03T21:04:06.769Z,25.10
2022-08-03T21:06:39.518Z,25.00
2022-08-03T21:09:09.774Z,24.90
2022-08-03T21:11:44.111Z,24.80
2022-08-03T21:13:01.994Z,27.90
2022-08-03T21:13:04.565Z,30.00
2022-08-03T21:13:08.591Z,26.70
2022-08-03T21:14:19.113Z,24.70
2022-08-03T21:16:51.716Z,24.60
2022-08-03T21:19:22.251Z,24.50
2022-08-03T21:21:50.914Z,24.50
2022-08-03T21:24:22.703Z,24.40
2022-08-03T21:26:54.712Z,24.30
2022-08-03T21:29:22.721Z,24.30
2022-08-03T21:31:52.436Z,24.20
2022-08-03T21:34:21.643Z,24.20
2022-08-03T21:36:50.026Z,24.20
2022-08-03T21:39:17.942Z,24.20
2022-08-03T21:41:45.972Z,24.20
2022-08-03T21:44:14.257Z,24.20
2022-08-03T21:46:43.323Z,24.20
2022-08-03T21:50:05.845Z,24.20
2022-08-03T21:52:05.609Z,24.20
2022-08-03T21:54:36.212Z,24.10
2022-08-03T21:57:06.561Z,24.10
2022-08-03T21:59:38.161Z,24.10
2022-08-03T22:02:11.446Z,24.10
2022-08-03T22:04:56.221Z,24.00
2022-08-03T22:07:26.503Z,24.00
2022-08-03T22:09:55.341Z,24.00
2022-08-03T22:12:24.854Z,23.90
2022-08-03T22:15:01.337Z,23.80
2022-08-03T22:17:54.983Z,23.80
2022-08-03T22:20:20.878Z,23.70
2022-08-03T22:22:55.722Z,23.60
2022-08-03T22:25:28.524Z,23.60
2022-08-03T22:27:56.470Z,23.60
2022-08-03T22:30:24.286Z,23.50
2022-08-03T22:32:54.812Z,23.50
2022-08-03T22:35:26.671Z,23.50
2022-08-03T22:37:56.075Z,23.40
2022-08-03T22:40:23.996Z,23.30
2022-08-03T22:42:52.788Z,23.30
2022-08-03T22:46:08.861Z,23.30
2022-08-03T22:48:09.321Z,23.20
2022-08-03T22:50:38.915Z,23.20
2022-08-03T22:53:07.867Z,23.10
2022-08-03T22:55:36.095Z,23.10
2022-08-03T22:58:03.838Z,23.10
2022-08-03T23:00:31.629Z,23.10
2022-08-03T23:03:03.008Z,23.10
2022-08-03T23:06:00.518Z,23.20
2022-08-03T23:08:25.586Z,23.20
2022-08-03T23:10:57.097Z,23.10
2022-08-03T23:13:26.312Z,23.10
2022-08-03T23:15:57.749Z,23.10
2022-08-03T23:18:28.302Z,23.00
2022-08-03T23:20:59.506Z,23.00
2022-08-03T23:23:30.993Z,23.00
2022-08-03T23:26:13.202Z,23.00
2022-08-03T23:28:46.068Z,22.90
2022-08-03T23:31:15.544Z,22.90
2022-08-03T23:33:45.516Z,22.80
2022-08-03T23:36:30.327Z,22.80
2022-08-03T23:39:03.481Z,22.80
2022-08-03T23:41:33.001Z,22.70
2022-08-03T23:44:04.121Z,22.70
2022-08-03T23:46:33.453Z,22.60
2022-08-03T23:49:01.332Z,22.70
2022-08-03T23:51:42.966Z,22.60
2022-08-03T23:54:23.206Z,22.60
2022-08-03T23:57:02.869Z,22.60
2022-08-03T23:59:46.382Z,22.50
